Aeroporto :
LOGIN :

Iscrizione | Disclaimer

   EN    FR    IT 

 










Sommario :    VFR   VFR Marginale   IFR   IFR Intensivo   IFR Molto Intensivo
Visibilità : 
Base nubi : 
>= 8 km
>= 3000ft
5 / 8 km
1000 / 3000 ft
1500m / 5 km
500 / 1000 ft
800 / 1500m
200 / 500 ft
< 800m
< 200 ft
Simboli :   Temporali  Nebbia  Neve Forte  Precipitazioni Forti  Vento > 20 kt
SIGMETs :   Varie  Temporali  Ghiacco  Turbolenza  Onda orograficha  Ceneri Vulcaniche






- Altitudine del aeroporto : 461 ft
- Codice IATA : WIE


ETOU - Wiesbaden Army

ULTIMO METAR :
  • 250755Z 04009KT 9999 CLR 23/12 A2996 RMK SLPNO AO2A WND DATA ESTMD ALSTG ESTMD

METARs OBSOLETI :
  • 250656Z 02009KT 9999 CLR 21/12 A2996 RMK SLPNO AO2A WND DATA ESTMD ALSTG ESTMD
  • 250555Z 02003KT 9999 CLR 21/12 A2996 RMK SLPNO AO2A WND DATA ESTMD ALSTG ESTMD
  • 250455Z 02003KT 9999 CLR 21/12 A2996 RMK AO2A WND DATA ESTMD ALSTG ESTMD
  • 250355Z 00000KT 9999 CLR 19/11 A2996 RMK AO2A SLPNO WND DATA ESTMD ALSTG ESTMD

TAF TAF ETOU
Valido dal 25 a 04 ore il 26 a 10 ore UTC


250400Z 2504/2610 VRB06KT 9999 FEW045 QNH3001INS
BECMG 2510/2511 07010G15KT 9999 SKC QNH2991INS
BECMG 2518/2519 VRB06KT 9999 BKN060 QNH2989INS TX28/2515Z TN14/2504Z



MetMap, La meteo Aeronautica in un colpo d'occhio ! - Copyright ORBIFLY Dicembre 2007 - Disclaimer

ORBIFLY MET'MAP TEAM :

Programmazione e sviluppo : Alexandra Zaïnal
Concezione : Baudouin d'Aumeries
Supporto tecnico e logistico : Manuel Goepfert
Aiuto : Marc-Olivier Méhu
Aiuto per la traduzione : Arnaldo La Scala




FONTI E CREDITI :

   NOAA